Time;durP1;ratioP1;P1;durP2;ratioP2;P2;SDS_P1;SDS_P2;PMS_P1;PMS_P2;Temp;Humidity;BMP_temperature;BMP_pressure;BME280_temperature;BME280_humidity;BME280_pressure;Samples;Min_cycle;Max_cycle;Signal;HPM_P1;HPM_P2
2021/08/14 00:02:21;;;;;;;10.23;7.28;;;14.30;99.90;;;;;;5001729;28;20043;-81
2021/08/14 00:04:49;;;;;;;11.15;6.47;;;14.20;99.90;;;;;;4999457;28;20035;-84
2021/08/14 00:07:16;;;;;;;11.68;6.32;;;13.90;99.90;;;;;;5015444;28;20050;-84
2021/08/14 00:09:43;;;;;;;8.38;6.20;;;13.80;99.90;;;;;;5004708;28;20060;-84
2021/08/14 00:12:10;;;;;;;11.45;7.45;;;13.90;99.90;;;;;;5004377;28;20084;-83
2021/08/14 00:14:36;;;;;;;8.60;5.65;;;13.80;99.90;;;;;;4999503;28;20061;-84
2021/08/14 00:17:04;;;;;;;15.02;6.72;;;13.90;99.90;;;;;;5017505;28;20096;-83
2021/08/14 00:19:30;;;;;;;13.38;6.90;;;13.70;99.90;;;;;;4999963;28;20054;-83
2021/08/14 00:21:57;;;;;;;10.38;6.53;;;13.70;99.90;;;;;;4990527;28;20061;-83
2021/08/14 00:24:24;;;;;;;10.77;6.65;;;13.60;99.90;;;;;;5016343;28;20065;-83
2021/08/14 00:26:51;;;;;;;10.60;6.43;;;13.60;99.90;;;;;;5012040;28;20140;-81
2021/08/14 00:29:19;;;;;;;11.93;7.07;;;13.40;99.90;;;;;;5020130;28;20398;-82
2021/08/14 00:31:46;;;;;;;12.68;6.20;;;13.30;99.90;;;;;;5055612;28;20140;-83
2021/08/14 00:34:13;;;;;;;12.23;6.45;;;13.30;99.90;;;;;;5052691;28;20041;-83
2021/08/14 00:36:39;;;;;;;17.77;6.80;;;13.40;99.90;;;;;;5014259;28;20049;-83
2021/08/14 00:39:06;;;;;;;11.35;6.40;;;13.40;99.90;;;;;;5018086;28;20399;-83
2021/08/14 00:41:33;;;;;;;15.30;7.15;;;13.20;99.90;;;;;;5036126;28;20188;-83
2021/08/14 00:44:03;;;;;;;10.85;5.97;;;13.30;99.90;;;;;;5004422;28;20050;-83
2021/08/14 00:46:32;;;;;;;9.98;6.32;;;13.10;99.90;;;;;;5038162;28;20060;-81
2021/08/14 00:49:02;;;;;;;14.27;6.55;;;13.00;99.90;;;;;;5036171;28;20045;-84
2021/08/14 00:51:30;;;;;;;8.80;6.90;;;12.90;99.90;;;;;;5017179;28;20055;-81
2021/08/14 00:53:56;;;;;;;14.98;6.53;;;12.90;99.90;;;;;;5016132;28;20057;-82
2021/08/14 00:56:26;;;;;;;14.95;7.22;;;12.90;99.90;;;;;;5017312;23;20049;-78
2021/08/14 00:58:54;;;;;;;12.55;7.32;;;13.00;99.90;;;;;;5018690;28;20065;-78
2021/08/14 01:01:25;;;;;;;11.13;7.32;;;12.80;99.90;;;;;;4990447;28;20047;-78
2021/08/14 01:03:56;;;;;;;11.15;7.30;;;12.50;99.90;;;;;;4994993;28;20058;-78
2021/08/14 01:06:24;;;;;;;10.13;6.93;;;12.60;99.90;;;;;;4974343;28;20468;-78
2021/08/14 01:08:52;;;;;;;12.13;7.22;;;12.60;99.90;;;;;;4978426;28;20119;-78
2021/08/14 01:11:19;;;;;;;16.30;7.93;;;12.70;99.90;;;;;;4994405;28;20050;-79
2021/08/14 01:13:46;;;;;;;16.20;8.23;;;12.80;99.90;;;;;;4990120;28;20461;-78
2021/08/14 01:16:13;;;;;;;13.75;7.53;;;12.70;99.90;;;;;;4996974;28;20043;-77
2021/08/14 01:18:45;;;;;;;17.10;7.93;;;12.60;99.90;;;;;;5009809;28;20149;-78
2021/08/14 01:21:21;;;;;;;12.07;7.30;;;12.70;99.90;;;;;;4999222;28;20050;-78
2021/08/14 01:23:49;;;;;;;17.15;7.93;;;12.70;99.90;;;;;;4973086;28;20046;-77
2021/08/14 01:26:17;;;;;;;12.90;7.88;;;12.60;99.90;;;;;;4987182;28;20048;-77
2021/08/14 01:28:45;;;;;;;20.20;9.10;;;12.60;99.90;;;;;;4991044;28;20140;-78
2021/08/14 01:31:13;;;;;;;17.90;9.00;;;12.50;99.90;;;;;;4992620;28;20061;-77
2021/08/14 01:33:42;;;;;;;16.02;8.98;;;12.40;99.90;;;;;;4986530;28;20395;-78
2021/08/14 01:36:12;;;;;;;16.55;9.10;;;12.40;99.90;;;;;;4988315;28;20124;-77
2021/08/14 01:38:49;;;;;;;12.50;9.75;;;12.40;99.90;;;;;;4986726;28;20046;-77
2021/08/14 01:41:17;;;;;;;16.60;8.57;;;12.40;99.90;;;;;;4955668;28;20054;-77
2021/08/14 01:43:58;;;;;;;13.80;8.98;;;12.40;99.90;;;;;;4973842;28;20050;-77
2021/08/14 01:46:27;;;;;;;15.77;8.88;;;12.50;99.90;;;;;;5001037;28;20453;-77
2021/08/14 01:48:54;;;;;;;18.92;8.80;;;12.40;99.90;;;;;;4990353;28;20050;-77
2021/08/14 01:51:22;;;;;;;17.98;9.60;;;12.50;99.90;;;;;;4972631;28;20523;-78
2021/08/14 01:53:51;;;;;;;13.85;8.43;;;12.40;99.90;;;;;;4990388;28;20064;-78
2021/08/14 01:56:18;;;;;;;15.05;8.20;;;12.40;99.90;;;;;;4987899;28;20049;-78
2021/08/14 01:58:45;;;;;;;14.77;7.40;;;12.20;99.90;;;;;;4956991;28;20120;-77
2021/08/14 02:01:13;;;;;;;8.93;7.07;;;12.00;99.90;;;;;;5022141;28;20054;-77
2021/08/14 02:03:41;;;;;;;16.35;7.78;;;12.00;99.90;;;;;;5021782;28;20114;-77
2021/08/14 02:06:08;;;;;;;11.70;7.25;;;11.80;99.90;;;;;;4970325;28;20112;-78
2021/08/14 02:08:36;;;;;;;13.25;7.20;;;11.80;99.90;;;;;;4987255;28;20554;-78
2021/08/14 02:11:19;;;;;;;13.50;8.07;;;11.80;99.90;;;;;;4988794;28;20054;-78
2021/08/14 02:13:48;;;;;;;18.30;9.02;;;11.70;99.90;;;;;;4989837;28;20049;-78
2021/08/14 02:16:16;;;;;;;18.27;8.10;;;11.80;99.90;;;;;;4996461;28;20054;-78
2021/08/14 02:18:43;;;;;;;12.27;7.35;;;11.90;99.90;;;;;;5009691;28;20050;-77
2021/08/14 02:21:10;;;;;;;14.45;7.63;;;11.90;99.90;;;;;;5006416;28;20050;-77
2021/08/14 02:23:37;;;;;;;13.30;7.72;;;11.80;99.90;;;;;;5006449;28;20050;-76
2021/08/14 02:26:05;;;;;;;15.73;9.10;;;11.80;99.90;;;;;;4973754;28;20084;-77
2021/08/14 02:28:32;;;;;;;18.92;8.20;;;11.80;99.90;;;;;;5008451;28;20165;-78
2021/08/14 02:31:00;;;;;;;18.70;9.32;;;11.70;99.90;;;;;;5007943;28;20167;-78
2021/08/14 02:33:28;;;;;;;19.60;9.95;;;11.60;99.90;;;;;;4992155;28;20089;-79
2021/08/14 02:35:55;;;;;;;21.77;9.68;;;11.60;99.90;;;;;;4995091;28;20049;-78
2021/08/14 02:38:22;;;;;;;16.45;9.45;;;11.60;99.90;;;;;;4972519;28;20118;-78
2021/08/14 02:40:49;;;;;;;13.38;8.45;;;11.70;99.90;;;;;;4987665;28;20282;-79
2021/08/14 02:43:17;;;;;;;19.17;10.02;;;11.60;99.90;;;;;;4956289;28;20062;-77
2021/08/14 02:45:45;;;;;;;18.70;9.63;;;11.50;99.90;;;;;;4980020;28;20046;-78
2021/08/14 02:48:12;;;;;;;21.05;9.10;;;11.50;99.90;;;;;;4972854;28;20049;-78
2021/08/14 02:50:42;;;;;;;17.00;8.95;;;11.50;99.90;;;;;;4975725;28;20045;-77
2021/08/14 02:53:09;;;;;;;16.75;10.20;;;11.70;99.90;;;;;;5009354;28;20065;-78
2021/08/14 02:55:36;;;;;;;16.20;10.27;;;11.70;99.90;;;;;;5005501;28;20053;-78
2021/08/14 02:58:03;;;;;;;14.13;7.53;;;11.50;99.90;;;;;;4995588;28;20065;-78
2021/08/14 03:00:29;;;;;;;15.57;10.05;;;11.40;99.90;;;;;;4989340;28;20379;-78
2021/08/14 03:02:56;;;;;;;16.92;8.95;;;11.40;99.90;;;;;;4991964;28;20600;-77
2021/08/14 03:05:25;;;;;;;19.40;9.48;;;11.50;99.90;;;;;;4986355;28;20105;-77
2021/08/14 03:07:52;;;;;;;20.35;11.15;;;11.40;99.90;;;;;;4969322;28;20034;-77
2021/08/14 03:10:19;;;;;;;21.33;11.95;;;11.50;99.90;;;;;;4971981;28;20065;-77
2021/08/14 03:12:46;;;;;;;20.15;10.48;;;11.60;99.90;;;;;;4956081;28;20391;-78
2021/08/14 03:15:14;;;;;;;16.67;10.07;;;11.40;99.90;;;;;;4975276;28;20042;-78
2021/08/14 03:17:41;;;;;;;15.20;10.98;;;11.20;99.90;;;;;;5001340;28;20082;-78
2021/08/14 03:20:09;;;;;;;17.13;10.27;;;11.20;99.90;;;;;;4991836;28;20100;-78
2021/08/14 03:22:36;;;;;;;16.30;9.55;;;11.10;99.90;;;;;;4977098;28;20077;-78
2021/08/14 03:25:04;;;;;;;13.32;8.45;;;11.20;99.90;;;;;;4990934;28;20058;-77
2021/08/14 03:27:31;;;;;;;20.30;10.07;;;11.30;99.90;;;;;;4999424;28;20050;-77
2021/08/14 03:29:58;;;;;;;16.67;9.63;;;11.30;99.90;;;;;;4973036;28;20049;-78
2021/08/14 03:32:25;;;;;;;18.30;9.75;;;11.20;99.90;;;;;;4971383;28;20501;-78
2021/08/14 03:34:51;;;;;;;18.02;8.88;;;11.10;99.90;;;;;;4972256;28;20050;-76
2021/08/14 03:37:18;;;;;;;19.20;9.07;;;11.00;99.90;;;;;;4986839;28;20042;-77
2021/08/14 03:39:45;;;;;;;17.17;8.85;;;11.10;99.90;;;;;;4971346;28;20046;-77
2021/08/14 03:42:12;;;;;;;12.30;7.80;;;11.00;99.90;;;;;;4987387;28;20057;-77
2021/08/14 03:44:39;;;;;;;15.52;7.97;;;11.10;99.90;;;;;;4977285;28;20543;-77
2021/08/14 03:47:06;;;;;;;15.77;8.73;;;11.00;99.90;;;;;;5000612;28;20064;-78
2021/08/14 03:49:32;;;;;;;17.40;9.73;;;11.10;99.90;;;;;;4992111;28;20042;-78
2021/08/14 03:51:59;;;;;;;19.00;9.93;;;11.00;99.90;;;;;;4990524;28;20717;-78
2021/08/14 03:54:26;;;;;;;18.52;9.93;;;11.10;99.90;;;;;;5009036;28;20057;-78
2021/08/14 03:56:54;;;;;;;17.25;9.25;;;11.10;99.90;;;;;;4990505;28;20038;-78
2021/08/14 03:59:21;;;;;;;16.02;8.35;;;11.00;99.90;;;;;;4994204;28;20054;-79
2021/08/14 04:01:52;;;;;;;15.13;8.52;;;11.00;99.90;;;;;;4959357;28;20046;-78
2021/08/14 04:04:19;;;;;;;19.58;9.02;;;11.10;99.90;;;;;;4956332;28;20084;-77
2021/08/14 04:06:46;;;;;;;15.43;9.23;;;11.20;99.90;;;;;;4989994;28;20054;-78
2021/08/14 04:09:13;;;;;;;20.17;8.52;;;11.00;99.90;;;;;;4995657;28;20049;-77
2021/08/14 04:11:43;;;;;;;16.83;10.15;;;11.10;99.90;;;;;;5004813;28;20104;-78
2021/08/14 04:14:10;;;;;;;21.35;10.30;;;11.10;99.90;;;;;;4966881;28;20131;-78
2021/08/14 04:16:37;;;;;;;19.35;10.82;;;11.00;99.90;;;;;;4992832;28;20518;-77
2021/08/14 04:19:04;;;;;;;19.02;11.15;;;10.90;99.90;;;;;;4987953;28;20494;-78
2021/08/14 04:21:31;;;;;;;29.65;12.55;;;11.10;99.90;;;;;;4966441;28;20879;-77
2021/08/14 04:23:58;;;;;;;16.58;10.98;;;11.00;99.90;;;;;;5008714;28;20061;-78
2021/08/14 04:26:28;;;;;;;17.95;9.43;;;10.90;99.90;;;;;;5006788;28;20540;-77
2021/08/14 04:28:55;;;;;;;19.02;10.10;;;10.90;99.90;;;;;;5010609;28;20127;-77
2021/08/14 04:31:22;;;;;;;14.25;9.43;;;10.80;99.90;;;;;;5027506;28;20128;-78
2021/08/14 04:33:49;;;;;;;15.45;8.95;;;10.90;99.90;;;;;;5005987;28;20573;-77
2021/08/14 04:36:15;;;;;;;15.82;9.65;;;11.00;99.90;;;;;;5006181;28;20072;-77
2021/08/14 04:38:42;;;;;;;19.92;9.15;;;11.10;99.90;;;;;;4987930;28;20129;-78
2021/08/14 04:41:09;;;;;;;13.68;9.13;;;11.00;99.90;;;;;;5026914;28;20045;-78
2021/08/14 04:43:35;;;;;;;14.18;7.72;;;11.00;99.90;;;;;;5025469;28;20107;-78
2021/08/14 04:46:02;;;;;;;16.60;8.85;;;10.90;99.90;;;;;;5015024;28;20478;-78
2021/08/14 04:48:29;;;;;;;12.85;8.07;;;11.00;99.90;;;;;;5044209;28;20130;-77
2021/08/14 04:50:56;;;;;;;14.20;7.57;;;11.00;99.90;;;;;;5027065;28;20053;-77
2021/08/14 04:53:23;;;;;;;15.27;7.95;;;11.10;99.90;;;;;;5026954;28;20057;-77
2021/08/14 04:55:49;;;;;;;14.63;7.55;;;11.10;99.90;;;;;;5026817;28;20099;-77
2021/08/14 04:58:16;;;;;;;14.10;7.22;;;11.30;99.90;;;;;;5012883;28;20069;-77
2021/08/14 05:00:44;;;;;;;15.18;8.02;;;11.10;99.90;;;;;;5017283;28;20042;-77
2021/08/14 05:03:12;;;;;;;13.43;7.28;;;11.10;99.90;;;;;;5014984;28;20069;-77
2021/08/14 05:05:39;;;;;;;19.23;6.93;;;11.10;99.90;;;;;;5007137;28;20292;-77
2021/08/14 05:08:06;;;;;;;16.13;7.30;;;11.10;99.90;;;;;;5013304;28;20050;-77
2021/08/14 05:10:33;;;;;;;15.75;7.90;;;11.10;99.90;;;;;;5015421;28;20045;-77
2021/08/14 05:13:00;;;;;;;12.00;7.85;;;11.20;99.90;;;;;;4993065;28;20156;-77
2021/08/14 05:15:27;;;;;;;12.68;7.68;;;11.30;99.90;;;;;;4996187;28;20061;-77
2021/08/14 05:17:53;;;;;;;19.17;8.95;;;11.40;99.90;;;;;;5004022;28;20721;-77
2021/08/14 05:20:20;;;;;;;19.30;8.35;;;11.50;99.90;;;;;;5008176;28;20062;-76
2021/08/14 05:22:47;;;;;;;15.00;8.27;;;11.60;99.90;;;;;;4983281;28;20061;-77
2021/08/14 05:25:15;;;;;;;13.77;8.77;;;11.60;99.90;;;;;;4955625;28;20184;-77
2021/08/14 05:27:41;;;;;;;13.68;8.93;;;11.60;99.90;;;;;;4972890;28;20058;-77
2021/08/14 05:30:09;;;;;;;12.43;7.85;;;11.60;99.90;;;;;;4989394;28;20051;-77
2021/08/14 05:32:36;;;;;;;12.80;7.05;;;11.70;99.90;;;;;;5013088;28;20103;-77
2021/08/14 05:35:07;;;;;;;13.05;7.55;;;11.70;99.90;;;;;;5028203;28;20232;-78
2021/08/14 05:37:33;;;;;;;10.93;7.45;;;11.90;99.90;;;;;;4991601;28;20500;-77
2021/08/14 05:40:00;;;;;;;14.75;7.47;;;12.10;99.90;;;;;;5002478;28;20681;-77
2021/08/14 05:42:27;;;;;;;16.70;8.10;;;12.30;99.90;;;;;;5027228;28;20046;-78
2021/08/14 05:44:54;;;;;;;14.85;8.35;;;12.30;99.90;;;;;;4981316;28;20132;-77
2021/08/14 05:47:21;;;;;;;12.38;8.13;;;12.40;99.90;;;;;;5018898;28;20054;-77
2021/08/14 05:49:47;;;;;;;15.02;7.82;;;12.50;99.90;;;;;;4980586;28;20041;-77
2021/08/14 05:52:14;;;;;;;12.07;7.85;;;12.50;99.90;;;;;;5003305;28;20054;-78
2021/08/14 05:54:41;;;;;;;16.58;7.80;;;12.70;99.90;;;;;;5006390;28;20050;-77
2021/08/14 05:57:08;;;;;;;14.02;7.38;;;12.90;99.90;;;;;;4989298;28;20442;-76
2021/08/14 05:59:34;;;;;;;11.85;7.78;;;13.20;99.90;;;;;;4990069;28;20038;-77
2021/08/14 06:02:02;;;;;;;11.63;7.53;;;13.30;99.90;;;;;;5004974;28;20053;-77
2021/08/14 06:04:29;;;;;;;13.00;7.70;;;13.50;99.90;;;;;;5004629;28;20103;-77
2021/08/14 06:06:56;;;;;;;12.73;7.55;;;13.40;99.90;;;;;;4988059;28;20053;-77
2021/08/14 06:09:23;;;;;;;17.55;8.55;;;13.50;99.90;;;;;;5014086;28;20697;-77
2021/08/14 06:11:49;;;;;;;15.07;8.35;;;13.60;99.90;;;;;;5006793;28;20041;-77
2021/08/14 06:14:16;;;;;;;14.52;8.80;;;13.70;99.90;;;;;;5039005;28;20057;-77
2021/08/14 06:16:43;;;;;;;13.90;8.52;;;13.90;99.90;;;;;;5012040;28;20045;-78
2021/08/14 06:19:10;;;;;;;18.42;8.23;;;14.00;99.90;;;;;;5025637;28;20053;-77
2021/08/14 06:21:36;;;;;;;19.48;9.45;;;14.10;99.90;;;;;;5025328;28;20100;-77
2021/08/14 06:24:04;;;;;;;13.80;8.77;;;14.30;99.90;;;;;;5005206;28;20057;-77
2021/08/14 06:26:30;;;;;;;14.65;8.82;;;14.50;99.90;;;;;;5003817;28;20049;-77
2021/08/14 06:28:57;;;;;;;17.65;8.90;;;14.70;99.90;;;;;;4990058;28;20108;-77
2021/08/14 06:31:24;;;;;;;19.35;8.82;;;15.00;99.90;;;;;;5001652;28;20466;-77
2021/08/14 06:33:51;;;;;;;14.75;8.27;;;15.40;99.90;;;;;;4997750;28;20052;-77
2021/08/14 06:36:18;;;;;;;15.25;8.50;;;15.90;99.90;;;;;;4988409;28;20544;-77
2021/08/14 06:38:44;;;;;;;12.98;8.68;;;16.40;99.90;;;;;;4987383;28;20054;-76
2021/08/14 06:41:11;;;;;;;12.32;8.40;;;16.90;99.90;;;;;;4988597;28;20042;-77
2021/08/14 06:43:38;;;;;;;14.85;10.20;;;17.60;99.90;;;;;;4989215;28;20188;-77
2021/08/14 06:46:05;;;;;;;13.48;9.38;;;18.20;99.90;;;;;;4991587;28;20060;-77
2021/08/14 06:48:35;;;;;;;19.15;10.07;;;18.60;99.90;;;;;;5008266;28;20047;-77
2021/08/14 06:51:02;;;;;;;15.13;11.18;;;19.00;99.90;;;;;;5024132;28;20068;-77
2021/08/14 06:53:30;;;;;;;18.35;12.48;;;19.30;99.90;;;;;;5002253;28;20038;-78
2021/08/14 06:55:57;;;;;;;20.65;12.45;;;19.50;99.90;;;;;;4987610;28;20096;-77
2021/08/14 06:58:24;;;;;;;15.50;11.73;;;19.70;99.90;;;;;;5006957;28;20061;-77
2021/08/14 07:00:50;;;;;;;20.25;13.88;;;20.10;99.90;;;;;;5003876;28;20053;-77
2021/08/14 07:03:17;;;;;;;17.13;12.38;;;20.30;99.90;;;;;;5003746;28;20544;-77
2021/08/14 07:05:44;;;;;;;21.88;15.07;;;20.50;99.90;;;;;;5001841;28;20411;-77
2021/08/14 07:08:11;;;;;;;16.60;13.40;;;20.60;99.90;;;;;;5005242;28;20414;-77
2021/08/14 07:10:38;;;;;;;22.13;14.70;;;20.60;99.90;;;;;;4971380;28;20058;-77
2021/08/14 07:13:05;;;;;;;16.08;13.73;;;20.60;99.90;;;;;;4971098;28;20461;-77
2021/08/14 07:15:32;;;;;;;18.33;13.50;;;20.70;99.90;;;;;;5008121;28;20061;-76
2021/08/14 07:17:59;;;;;;;18.55;13.95;;;20.90;99.90;;;;;;5013379;28;20073;-80
2021/08/14 07:20:26;;;;;;;16.25;12.57;;;21.10;99.90;;;;;;5001184;28;20049;-79
2021/08/14 07:22:54;;;;;;;18.38;13.55;;;21.20;99.90;;;;;;4998828;28;20034;-80
2021/08/14 07:25:22;;;;;;;20.77;13.60;;;21.40;99.90;;;;;;4986790;28;20054;-80
2021/08/14 07:27:50;;;;;;;20.25;13.63;;;21.40;99.90;;;;;;5003323;28;20042;-81
2021/08/14 07:30:16;;;;;;;21.30;14.10;;;21.50;99.90;;;;;;4989753;28;20056;-80
2021/08/14 07:32:43;;;;;;;18.73;14.65;;;21.60;99.90;;;;;;4994874;28;20068;-80
2021/08/14 07:35:10;;;;;;;17.40;13.60;;;21.60;99.90;;;;;;4974005;28;20096;-81
2021/08/14 07:37:48;;;;;;;21.42;14.38;;;21.60;99.90;;;;;;5007847;28;20072;-80
2021/08/14 07:40:21;;;;;;;22.48;15.02;;;21.70;99.90;;;;;;4971633;28;20073;-79
2021/08/14 07:42:48;;;;;;;20.83;14.23;;;21.60;99.90;;;;;;4991246;28;20037;-79
2021/08/14 07:45:17;;;;;;;19.98;15.40;;;21.70;99.90;;;;;;5011081;28;20140;-81
2021/08/14 07:47:48;;;;;;;19.77;15.77;;;21.60;99.90;;;;;;5002196;28;20105;-81
2021/08/14 07:50:20;;;;;;;16.08;14.43;;;21.70;99.90;;;;;;5010427;28;20177;-81
2021/08/14 07:52:48;;;;;;;20.23;15.07;;;21.70;99.90;;;;;;4994603;28;20288;-83
2021/08/14 07:55:16;;;;;;;20.30;14.57;;;21.90;99.90;;;;;;4995812;28;20136;-81
2021/08/14 07:57:43;;;;;;;23.48;16.13;;;22.10;99.90;;;;;;4998215;28;20133;-81
2021/08/14 08:00:15;;;;;;;21.23;14.80;;;22.10;99.90;;;;;;4994979;28;20080;-79
2021/08/14 08:02:42;;;;;;;18.15;16.23;;;22.30;99.90;;;;;;4974677;28;20062;-79
2021/08/14 08:05:11;;;;;;;20.88;15.32;;;22.40;99.90;;;;;;5000050;28;20042;-80
2021/08/14 08:07:43;;;;;;;18.30;14.15;;;22.50;99.90;;;;;;5008659;28;20042;-80
2021/08/14 08:10:15;;;;;;;21.77;15.57;;;22.60;99.90;;;;;;4991998;28;20540;-77
2021/08/14 08:12:42;;;;;;;15.20;13.63;;;22.40;99.90;;;;;;4993778;28;20201;-81
2021/08/14 08:15:10;;;;;;;17.17;13.95;;;22.60;99.90;;;;;;5020627;28;20111;-80
2021/08/14 08:17:38;;;;;;;18.05;12.75;;;22.80;99.90;;;;;;5006363;28;20106;-81
2021/08/14 08:20:07;;;;;;;16.13;13.52;;;23.00;99.90;;;;;;5016824;28;20046;-78
2021/08/14 08:22:34;;;;;;;20.77;14.50;;;23.00;99.90;;;;;;5015267;28;20050;-79
2021/08/14 08:25:01;;;;;;;14.88;13.07;;;23.00;99.90;;;;;;5005976;28;20056;-79
2021/08/14 08:27:31;;;;;;;14.63;12.73;;;23.10;99.90;;;;;;4976493;28;20069;-79
2021/08/14 08:29:58;;;;;;;16.90;13.80;;;23.50;99.90;;;;;;4996452;28;20042;-79
2021/08/14 08:32:25;;;;;;;17.10;14.20;;;23.80;99.90;;;;;;4979801;28;20053;-79
2021/08/14 08:34:51;;;;;;;19.55;16.00;;;23.90;99.90;;;;;;4978908;28;20105;-79
2021/08/14 08:37:18;;;;;;;18.33;13.85;;;23.90;99.90;;;;;;5010140;28;20065;-80
2021/08/14 08:39:45;;;;;;;17.98;14.65;;;24.10;99.90;;;;;;4978933;28;20226;-79
2021/08/14 08:42:12;;;;;;;16.50;15.00;;;24.10;99.90;;;;;;4980882;28;20050;-79
2021/08/14 08:44:39;;;;;;;17.85;15.30;;;24.10;99.90;;;;;;5015146;28;20045;-79
2021/08/14 08:47:08;;;;;;;21.08;15.30;;;24.20;99.90;;;;;;4986727;28;20046;-81
2021/08/14 08:49:49;;;;;;;20.55;16.05;;;24.20;99.90;;;;;;5013455;28;20311;-80
2021/08/14 08:52:15;;;;;;;15.63;14.02;;;24.30;99.90;;;;;;4994086;28;20054;-78
2021/08/14 08:54:42;;;;;;;21.05;17.23;;;24.30;99.90;;;;;;4996003;28;20088;-79
2021/08/14 08:57:09;;;;;;;19.70;16.33;;;24.20;99.90;;;;;;4976162;28;20105;-78
2021/08/14 08:59:36;;;;;;;19.17;15.32;;;24.20;99.90;;;;;;4959426;28;20053;-78
2021/08/14 09:02:03;;;;;;;18.60;15.25;;;24.60;99.90;;;;;;4991225;28;20045;-79
2021/08/14 09:04:32;;;;;;;21.60;15.60;;;24.60;99.90;;;;;;5034095;28;20072;-83
2021/08/14 09:07:00;;;;;;;22.85;16.00;;;24.70;99.90;;;;;;5002893;28;20046;-82
2021/08/14 09:09:36;;;;;;;17.55;15.70;;;24.70;99.90;;;;;;5005640;28;20041;-82
2021/08/14 09:12:06;;;;;;;17.08;14.32;;;25.00;99.90;;;;;;4989794;28;20288;-83
2021/08/14 09:14:47;;;;;;;16.17;14.60;;;25.20;99.90;;;;;;5006668;28;20366;-80
2021/08/14 09:17:15;;;;;;;18.23;15.43;;;25.30;99.90;;;;;;5018399;28;20144;-85
2021/08/14 09:19:42;;;;;;;16.23;14.57;;;25.30;99.90;;;;;;5007050;28;20112;-83
2021/08/14 09:22:20;;;;;;;18.83;16.17;;;25.20;99.90;;;;;;5022839;28;20274;-80
2021/08/14 09:24:47;;;;;;;16.42;14.77;;;24.80;99.90;;;;;;5014471;28;20658;-81
2021/08/14 09:27:16;;;;;;;16.85;14.98;;;24.80;99.90;;;;;;4984905;28;20050;-83
2021/08/14 09:29:48;;;;;;;18.55;15.55;;;25.10;99.90;;;;;;4993404;28;20141;-80
2021/08/14 09:32:19;;;;;;;20.48;14.73;;;25.10;99.90;;;;;;5007571;28;20046;-84
2021/08/14 09:34:49;;;;;;;18.38;15.25;;;25.20;99.90;;;;;;5018609;28;20053;-82
2021/08/14 09:37:17;;;;;;;16.73;14.30;;;25.20;99.90;;;;;;5002108;28;20121;-82
2021/08/14 09:39:53;;;;;;;17.15;13.70;;;25.20;99.90;;;;;;5001105;28;20057;-83
2021/08/14 09:42:20;;;;;;;15.73;13.63;;;25.30;99.90;;;;;;4984159;28;20046;-82
2021/08/14 09:45:17;;;;;;;15.57;13.23;;;25.40;99.90;;;;;;5007608;28;20555;-82
2021/08/14 09:47:51;;;;;;;17.33;14.45;;;25.30;99.90;;;;;;5014223;28;20071;-83
2021/08/14 09:50:18;;;;;;;16.92;14.73;;;25.10;99.90;;;;;;5016877;28;20064;-84
2021/08/14 09:52:47;;;;;;;16.50;14.70;;;25.30;99.90;;;;;;5014348;28;20638;-82
2021/08/14 09:55:23;;;;;;;16.25;14.93;;;25.50;99.90;;;;;;4997403;28;20046;-82
2021/08/14 09:58:00;;;;;;;18.98;14.68;;;25.70;99.90;;;;;;4984004;28;20061;-82
2021/08/14 10:00:31;;;;;;;15.05;13.60;;;25.40;99.90;;;;;;4998473;28;20128;-86
2021/08/14 10:03:00;;;;;;;15.52;13.93;;;25.30;99.90;;;;;;5002036;28;20056;-86
2021/08/14 10:05:32;;;;;;;15.68;13.45;;;25.40;99.90;;;;;;5004432;28;20053;-86
2021/08/14 10:08:03;;;;;;;16.92;14.30;;;25.60;99.90;;;;;;5001110;28;20052;-85
2021/08/14 10:10:31;;;;;;;17.95;14.70;;;25.80;99.90;;;;;;4999496;28;20281;-86
2021/08/14 10:12:59;;;;;;;23.67;14.65;;;25.70;99.90;;;;;;4982847;28;20054;-87
2021/08/14 10:15:27;;;;;;;19.25;14.90;;;25.50;99.90;;;;;;5011442;28;20060;-85
2021/08/14 10:17:55;;;;;;;16.85;14.85;;;25.50;99.90;;;;;;5006753;28;20061;-87
2021/08/14 10:20:23;;;;;;;23.73;16.05;;;25.60;99.90;;;;;;5018161;28;20061;-86
2021/08/14 10:22:59;;;;;;;17.20;14.95;;;25.50;99.90;;;;;;5002610;28;20529;-85
2021/08/14 10:25:26;;;;;;;17.95;15.20;;;25.40;99.90;;;;;;4984825;28;20112;-85
2021/08/14 10:28:02;;;;;;;16.65;15.15;;;25.30;99.90;;;;;;4997176;28;20042;-83
2021/08/14 10:30:45;;;;;;;16.23;13.95;;;25.60;99.90;;;;;;4978833;28;20042;-84
2021/08/14 10:33:28;;;;;;;16.48;14.73;;;25.50;99.90;;;;;;4983649;28;20050;-84
2021/08/14 10:35:56;;;;;;;16.10;13.77;;;25.80;99.90;;;;;;4997007;28;20049;-83
2021/08/14 10:38:38;;;;;;;20.10;13.70;;;25.70;99.90;;;;;;4999638;28;20056;-84
2021/08/14 10:41:06;;;;;;;17.20;14.13;;;25.70;99.90;;;;;;4999407;28;20275;-84
2021/08/14 10:43:54;;;;;;;21.27;13.70;;;25.90;99.90;;;;;;4984330;28;20100;-84
2021/08/14 10:46:43;;;;;;;16.55;12.80;;;26.10;99.90;;;;;;5002506;28;20240;-82
2021/08/14 10:49:19;;;;;;;19.05;14.38;;;26.20;99.90;;;;;;5014209;28;20045;-83
2021/08/14 10:51:52;;;;;;;16.75;14.55;;;26.20;99.90;;;;;;5001293;28;20084;-85
2021/08/14 10:54:28;;;;;;;14.57;13.07;;;26.40;99.90;;;;;;5001738;28;20145;-84
2021/08/14 10:57:08;;;;;;;15.23;13.73;;;26.40;99.90;;;;;;4982904;28;20293;-85
2021/08/14 10:59:34;;;;;;;16.60;14.32;;;26.20;99.90;;;;;;4981321;28;20050;-86
2021/08/14 11:02:10;;;;;;;17.02;14.40;;;26.40;99.90;;;;;;4964189;28;20054;-84
2021/08/14 11:04:38;;;;;;;19.98;15.90;;;26.40;99.90;;;;;;4982956;28;20046;-86
2021/08/14 11:07:17;;;;;;;17.23;14.07;;;26.40;99.90;;;;;;4998561;28;20041;-85
2021/08/14 11:09:46;;;;;;;17.13;13.77;;;26.20;99.90;;;;;;5002347;28;20049;-84
2021/08/14 11:12:33;;;;;;;20.98;14.50;;;26.30;99.90;;;;;;5001861;28;20044;-82
2021/08/14 11:15:17;;;;;;;16.75;13.25;;;26.20;99.90;;;;;;5006772;28;20041;-85
2021/08/14 11:17:47;;;;;;;17.95;13.80;;;26.10;99.90;;;;;;5004962;28;20065;-84
2021/08/14 11:20:19;;;;;;;18.52;14.02;;;26.20;99.90;;;;;;4986924;28;20065;-81
2021/08/14 11:22:53;;;;;;;21.88;15.07;;;26.30;99.90;;;;;;5002447;28;20269;-85
2021/08/14 11:25:27;;;;;;;19.63;15.65;;;26.00;99.90;;;;;;4995100;28;20056;-85
2021/08/14 11:28:02;;;;;;;16.20;14.60;;;26.00;99.90;;;;;;4973014;28;20498;-83
2021/08/14 11:30:36;;;;;;;17.77;12.98;;;25.80;99.90;;;;;;4976104;28;20108;-85
2021/08/14 11:33:05;;;;;;;15.32;13.68;;;26.10;99.90;;;;;;4959084;28;20153;-83
2021/08/14 11:35:34;;;;;;;16.95;13.75;;;26.30;99.90;;;;;;4992740;28;20390;-84
2021/08/14 11:38:04;;;;;;;17.10;14.60;;;26.30;99.90;;;;;;4992300;28;20099;-83
2021/08/14 11:40:37;;;;;;;15.60;13.63;;;26.20;99.90;;;;;;5008412;28;20505;-84
2021/08/14 11:43:03;;;;;;;18.30;14.18;;;26.20;99.90;;;;;;4993337;28;20054;-86
2021/08/14 11:45:33;;;;;;;14.23;12.93;;;26.20;99.90;;;;;;5000997;28;20044;-83
2021/08/14 11:48:03;;;;;;;16.55;13.52;;;26.10;99.90;;;;;;5026586;28;20080;-82
2021/08/14 11:50:33;;;;;;;18.25;14.10;;;26.40;99.90;;;;;;4973509;28;20058;-83
2021/08/14 11:53:00;;;;;;;14.60;13.20;;;26.30;99.90;;;;;;4974470;28;20046;-86
2021/08/14 11:55:27;;;;;;;14.75;13.23;;;26.00;99.90;;;;;;4956983;28;20120;-83
2021/08/14 11:57:54;;;;;;;15.52;13.02;;;26.10;99.90;;;;;;4969959;28;20547;-78
2021/08/14 12:00:25;;;;;;;14.38;12.93;;;26.20;99.90;;;;;;4987712;28;20060;-79
2021/08/14 12:03:06;;;;;;;15.43;12.68;;;26.30;99.90;;;;;;4971878;28;20069;-80
2021/08/14 12:05:35;;;;;;;15.02;13.57;;;26.70;99.90;;;;;;4971351;28;20050;-80
2021/08/14 12:08:02;;;;;;;15.15;13.68;;;26.90;99.90;;;;;;4989406;28;20054;-79
2021/08/14 12:10:30;;;;;;;14.27;12.93;;;27.20;99.90;;;;;;4988609;28;20046;-79
2021/08/14 12:12:58;;;;;;;15.73;12.98;;;26.90;99.90;;;;;;4988621;28;20069;-80
2021/08/14 12:15:42;;;;;;;17.90;13.45;;;27.00;99.90;;;;;;4978724;28;20046;-80
2021/08/14 12:18:10;;;;;;;14.27;12.80;;;26.70;99.90;;;;;;4995715;28;20538;-80
2021/08/14 12:20:40;;;;;;;14.38;12.75;;;26.70;99.90;;;;;;4971990;28;20046;-79
2021/08/14 12:23:20;;;;;;;14.32;12.85;;;26.80;99.90;;;;;;4988723;28;20126;-78
2021/08/14 12:25:55;;;;;;;14.68;13.18;;;26.90;99.90;;;;;;4987745;28;20060;-78
2021/08/14 12:28:39;;;;;;;15.32;13.73;;;26.70;99.90;;;;;;4986263;28;20042;-79
2021/08/14 12:31:18;;;;;;;14.57;13.20;;;26.40;99.90;;;;;;4987860;28;20524;-78
2021/08/14 12:33:48;;;;;;;13.70;12.45;;;26.10;99.90;;;;;;4986994;28;20050;-80
2021/08/14 12:36:30;;;;;;;18.33;13.30;;;26.20;99.90;;;;;;4971188;28;20046;-80
2021/08/14 12:38:57;;;;;;;15.18;13.70;;;26.30;99.90;;;;;;5004006;28;20228;-77
2021/08/14 12:41:24;;;;;;;15.25;13.40;;;26.30;99.90;;;;;;4990752;28;20414;-79